sensor_id;sensor_type;location;lat;lon;timestamp;P1;durP1;ratioP1;P2;durP2;ratioP2
44358;SDS011;30077;52.474;13.326;2023-06-22T00:00:23;15.98;;;12.30;;
44358;SDS011;30077;52.474;13.326;2023-06-22T00:05:24;15.88;;;12.85;;
44358;SDS011;30077;52.474;13.326;2023-06-22T00:10:24;15.82;;;12.52;;
44358;SDS011;30077;52.474;13.326;2023-06-22T00:15:25;15.45;;;13.18;;
44358;SDS011;30077;52.474;13.326;2023-06-22T00:20:26;16.25;;;12.70;;
44358;SDS011;30077;52.474;13.326;2023-06-22T00:25:30;14.02;;;12.30;;
44358;SDS011;30077;52.474;13.326;2023-06-22T00:30:31;16.20;;;12.55;;
44358;SDS011;30077;52.474;13.326;2023-06-22T00:35:33;16.88;;;13.77;;
44358;SDS011;30077;52.474;13.326;2023-06-22T00:40:34;15.00;;;13.20;;
44358;SDS011;30077;52.474;13.326;2023-06-22T00:45:35;15.00;;;13.18;;
44358;SDS011;30077;52.474;13.326;2023-06-22T00:50:36;15.93;;;13.43;;
44358;SDS011;30077;52.474;13.326;2023-06-22T00:55:37;15.80;;;13.52;;
44358;SDS011;30077;52.474;13.326;2023-06-22T01:00:43;16.58;;;13.63;;
44358;SDS011;30077;52.474;13.326;2023-06-22T01:05:44;16.42;;;13.70;;
44358;SDS011;30077;52.474;13.326;2023-06-22T01:10:55;17.58;;;14.20;;
44358;SDS011;30077;52.474;13.326;2023-06-22T01:16:30;14.60;;;13.15;;
44358;SDS011;30077;52.474;13.326;2023-06-22T01:21:31;16.13;;;13.70;;
44358;SDS011;30077;52.474;13.326;2023-06-22T01:26:41;15.32;;;13.68;;
44358;SDS011;30077;52.474;13.326;2023-06-22T01:31:58;18.27;;;15.43;;
44358;SDS011;30077;52.474;13.326;2023-06-22T01:37:00;17.93;;;14.37;;
44358;SDS011;30077;52.474;13.326;2023-06-22T01:42:02;17.90;;;15.00;;
44358;SDS011;30077;52.474;13.326;2023-06-22T01:47:05;18.75;;;15.15;;
44358;SDS011;30077;52.474;13.326;2023-06-22T01:52:07;17.02;;;14.55;;
44358;SDS011;30077;52.474;13.326;2023-06-22T01:57:08;20.23;;;15.75;;
44358;SDS011;30077;52.474;13.326;2023-06-22T02:02:10;21.52;;;16.60;;
44358;SDS011;30077;52.474;13.326;2023-06-22T02:07:15;16.67;;;14.88;;
44358;SDS011;30077;52.474;13.326;2023-06-22T02:12:21;26.13;;;18.67;;
44358;SDS011;30077;52.474;13.326;2023-06-22T02:17:25;23.38;;;20.27;;
44358;SDS011;30077;52.474;13.326;2023-06-22T02:22:26;25.02;;;20.35;;
44358;SDS011;30077;52.474;13.326;2023-06-22T02:27:27;22.15;;;19.73;;
44358;SDS011;30077;52.474;13.326;2023-06-22T02:32:27;29.70;;;20.13;;
44358;SDS011;30077;52.474;13.326;2023-06-22T02:37:28;26.15;;;20.42;;
44358;SDS011;30077;52.474;13.326;2023-06-22T02:42:29;22.95;;;18.92;;
44358;SDS011;30077;52.474;13.326;2023-06-22T02:47:30;24.25;;;20.45;;
44358;SDS011;30077;52.474;13.326;2023-06-22T02:52:31;26.63;;;19.60;;
44358;SDS011;30077;52.474;13.326;2023-06-22T02:57:31;25.17;;;21.67;;
44358;SDS011;30077;52.474;13.326;2023-06-22T03:02:32;24.20;;;20.60;;
44358;SDS011;30077;52.474;13.326;2023-06-22T03:07:33;23.25;;;19.92;;
44358;SDS011;30077;52.474;13.326;2023-06-22T03:12:33;28.02;;;20.13;;
44358;SDS011;30077;52.474;13.326;2023-06-22T03:17:34;26.95;;;20.42;;
44358;SDS011;30077;52.474;13.326;2023-06-22T03:22:36;24.63;;;19.60;;
44358;SDS011;30077;52.474;13.326;2023-06-22T03:27:41;22.75;;;18.52;;
44358;SDS011;30077;52.474;13.326;2023-06-22T03:32:43;26.45;;;18.73;;
44358;SDS011;30077;52.474;13.326;2023-06-22T03:37:44;21.30;;;18.08;;
44358;SDS011;30077;52.474;13.326;2023-06-22T03:42:45;20.20;;;16.52;;
44358;SDS011;30077;52.474;13.326;2023-06-22T03:47:46;21.15;;;15.68;;
44358;SDS011;30077;52.474;13.326;2023-06-22T03:52:47;20.02;;;14.80;;
44358;SDS011;30077;52.474;13.326;2023-06-22T03:57:47;16.73;;;14.82;;
44358;SDS011;30077;52.474;13.326;2023-06-22T04:02:48;22.88;;;15.70;;
44358;SDS011;30077;52.474;13.326;2023-06-22T04:07:49;17.02;;;14.80;;
44358;SDS011;30077;52.474;13.326;2023-06-22T04:12:50;19.00;;;14.77;;
44358;SDS011;30077;52.474;13.326;2023-06-22T04:17:51;16.00;;;13.48;;
44358;SDS011;30077;52.474;13.326;2023-06-22T04:22:54;13.75;;;12.25;;
44358;SDS011;30077;52.474;13.326;2023-06-22T04:27:56;16.02;;;12.10;;
44358;SDS011;30077;52.474;13.326;2023-06-22T04:32:57;17.15;;;12.57;;
44358;SDS011;30077;52.474;13.326;2023-06-22T04:37:58;15.80;;;10.35;;
44358;SDS011;30077;52.474;13.326;2023-06-22T04:42:59;13.32;;;11.00;;
44358;SDS011;30077;52.474;13.326;2023-06-22T04:48:02;13.85;;;12.27;;
44358;SDS011;30077;52.474;13.326;2023-06-22T04:53:03;13.88;;;11.25;;
44358;SDS011;30077;52.474;13.326;2023-06-22T05:03:06;14.07;;;10.07;;
44358;SDS011;30077;52.474;13.326;2023-06-22T05:08:11;12.27;;;9.32;;
44358;SDS011;30077;52.474;13.326;2023-06-22T05:13:13;12.35;;;9.43;;
44358;SDS011;30077;52.474;13.326;2023-06-22T05:18:13;12.07;;;9.40;;
44358;SDS011;30077;52.474;13.326;2023-06-22T05:23:14;9.73;;;8.82;;
44358;SDS011;30077;52.474;13.326;2023-06-22T05:28:15;13.77;;;9.70;;
44358;SDS011;30077;52.474;13.326;2023-06-22T05:33:15;10.65;;;9.52;;
44358;SDS011;30077;52.474;13.326;2023-06-22T05:38:17;11.25;;;9.88;;
44358;SDS011;30077;52.474;13.326;2023-06-22T05:43:18;13.05;;;9.45;;
44358;SDS011;30077;52.474;13.326;2023-06-22T05:48:19;12.43;;;9.15;;
44358;SDS011;30077;52.474;13.326;2023-06-22T05:53:19;13.02;;;9.38;;
44358;SDS011;30077;52.474;13.326;2023-06-22T05:58:20;15.40;;;9.68;;
44358;SDS011;30077;52.474;13.326;2023-06-22T06:03:22;12.98;;;9.85;;
44358;SDS011;30077;52.474;13.326;2023-06-22T06:08:23;12.40;;;9.63;;
44358;SDS011;30077;52.474;13.326;2023-06-22T06:13:23;14.70;;;9.35;;
44358;SDS011;30077;52.474;13.326;2023-06-22T06:18:24;10.85;;;9.73;;
44358;SDS011;30077;52.474;13.326;2023-06-22T06:23:25;11.43;;;8.77;;
44358;SDS011;30077;52.474;13.326;2023-06-22T06:28:26;13.20;;;9.52;;
44358;SDS011;30077;52.474;13.326;2023-06-22T06:33:26;13.13;;;8.45;;
44358;SDS011;30077;52.474;13.326;2023-06-22T06:38:27;11.55;;;8.95;;
44358;SDS011;30077;52.474;13.326;2023-06-22T06:43:28;11.45;;;8.27;;
44358;SDS011;30077;52.474;13.326;2023-06-22T06:48:28;11.15;;;7.90;;
44358;SDS011;30077;52.474;13.326;2023-06-22T06:53:29;7.43;;;6.38;;
44358;SDS011;30077;52.474;13.326;2023-06-22T06:58:30;12.27;;;6.85;;
44358;SDS011;30077;52.474;13.326;2023-06-22T07:03:31;12.38;;;7.03;;
44358;SDS011;30077;52.474;13.326;2023-06-22T07:08:33;6.75;;;5.78;;
44358;SDS011;30077;52.474;13.326;2023-06-22T07:13:35;10.05;;;5.97;;
44358;SDS011;30077;52.474;13.326;2023-06-22T07:18:35;8.35;;;5.78;;
44358;SDS011;30077;52.474;13.326;2023-06-22T07:23:36;6.63;;;4.90;;
44358;SDS011;30077;52.474;13.326;2023-06-22T07:28:37;6.43;;;4.65;;
44358;SDS011;30077;52.474;13.326;2023-06-22T07:33:38;9.10;;;5.25;;
44358;SDS011;30077;52.474;13.326;2023-06-22T07:38:38;6.20;;;4.50;;
44358;SDS011;30077;52.474;13.326;2023-06-22T07:43:39;7.00;;;4.40;;
44358;SDS011;30077;52.474;13.326;2023-06-22T07:48:39;6.90;;;4.15;;
44358;SDS011;30077;52.474;13.326;2023-06-22T07:53:42;9.57;;;4.45;;
44358;SDS011;30077;52.474;13.326;2023-06-22T07:58:45;10.10;;;4.38;;
44358;SDS011;30077;52.474;13.326;2023-06-22T08:03:49;6.05;;;4.03;;
44358;SDS011;30077;52.474;13.326;2023-06-22T08:08:50;5.72;;;4.60;;
44358;SDS011;30077;52.474;13.326;2023-06-22T08:13:54;5.60;;;4.10;;
44358;SDS011;30077;52.474;13.326;2023-06-22T08:18:55;8.43;;;3.90;;
44358;SDS011;30077;52.474;13.326;2023-06-22T08:23:56;6.40;;;4.18;;
44358;SDS011;30077;52.474;13.326;2023-06-22T08:28:57;6.47;;;3.90;;
44358;SDS011;30077;52.474;13.326;2023-06-22T08:33:57;7.50;;;4.60;;
44358;SDS011;30077;52.474;13.326;2023-06-22T08:38:58;5.35;;;4.30;;
44358;SDS011;30077;52.474;13.326;2023-06-22T08:44:01;7.70;;;4.57;;
44358;SDS011;30077;52.474;13.326;2023-06-22T08:49:02;5.33;;;4.70;;
44358;SDS011;30077;52.474;13.326;2023-06-22T08:54:04;4.85;;;4.30;;
44358;SDS011;30077;52.474;13.326;2023-06-22T08:59:05;4.88;;;4.20;;
44358;SDS011;30077;52.474;13.326;2023-06-22T09:04:07;5.47;;;4.25;;
44358;SDS011;30077;52.474;13.326;2023-06-22T09:09:09;5.85;;;4.45;;
44358;SDS011;30077;52.474;13.326;2023-06-22T09:14:10;8.93;;;4.57;;
44358;SDS011;30077;52.474;13.326;2023-06-22T09:19:11;7.85;;;4.28;;
44358;SDS011;30077;52.474;13.326;2023-06-22T09:24:12;5.20;;;4.23;;
44358;SDS011;30077;52.474;13.326;2023-06-22T09:29:13;6.70;;;3.67;;
44358;SDS011;30077;52.474;13.326;2023-06-22T09:34:14;3.63;;;3.33;;
44358;SDS011;30077;52.474;13.326;2023-06-22T09:39:20;4.93;;;3.80;;
44358;SDS011;30077;52.474;13.326;2023-06-22T09:44:20;9.43;;;4.43;;
44358;SDS011;30077;52.474;13.326;2023-06-22T09:49:21;4.47;;;4.07;;
44358;SDS011;30077;52.474;13.326;2023-06-22T09:54:22;6.27;;;4.90;;
44358;SDS011;30077;52.474;13.326;2023-06-22T09:59:23;4.67;;;4.23;;
44358;SDS011;30077;52.474;13.326;2023-06-22T10:04:25;4.87;;;4.33;;
44358;SDS011;30077;52.474;13.326;2023-06-22T10:09:26;5.53;;;5.00;;
44358;SDS011;30077;52.474;13.326;2023-06-22T10:14:27;6.40;;;5.20;;
44358;SDS011;30077;52.474;13.326;2023-06-22T10:19:29;6.38;;;5.40;;
44358;SDS011;30077;52.474;13.326;2023-06-22T10:24:30;7.82;;;5.57;;
44358;SDS011;30077;52.474;13.326;2023-06-22T10:29:30;7.57;;;4.97;;
44358;SDS011;30077;52.474;13.326;2023-06-22T10:34:31;5.73;;;4.37;;
44358;SDS011;30077;52.474;13.326;2023-06-22T10:39:32;6.18;;;5.28;;
44358;SDS011;30077;52.474;13.326;2023-06-22T10:44:34;7.78;;;6.40;;
44358;SDS011;30077;52.474;13.326;2023-06-22T10:49:34;8.23;;;5.40;;
44358;SDS011;30077;52.474;13.326;2023-06-22T10:54:38;8.02;;;5.38;;
44358;SDS011;30077;52.474;13.326;2023-06-22T10:59:38;5.22;;;4.68;;
44358;SDS011;30077;52.474;13.326;2023-06-22T11:04:39;8.55;;;4.97;;
44358;SDS011;30077;52.474;13.326;2023-06-22T11:09:40;5.20;;;4.70;;
44358;SDS011;30077;52.474;13.326;2023-06-22T11:14:40;5.82;;;5.20;;
44358;SDS011;30077;52.474;13.326;2023-06-22T11:19:41;5.30;;;4.35;;
44358;SDS011;30077;52.474;13.326;2023-06-22T11:24:42;7.97;;;6.22;;
44358;SDS011;30077;52.474;13.326;2023-06-22T11:29:42;5.82;;;4.65;;
44358;SDS011;30077;52.474;13.326;2023-06-22T11:34:43;6.43;;;4.50;;
44358;SDS011;30077;52.474;13.326;2023-06-22T11:39:44;5.60;;;5.00;;
44358;SDS011;30077;52.474;13.326;2023-06-22T11:44:45;5.83;;;5.23;;
44358;SDS011;30077;52.474;13.326;2023-06-22T11:49:45;5.85;;;5.30;;
44358;SDS011;30077;52.474;13.326;2023-06-22T11:54:46;6.32;;;4.40;;
44358;SDS011;30077;52.474;13.326;2023-06-22T11:59:47;7.67;;;5.23;;
44358;SDS011;30077;52.474;13.326;2023-06-22T12:04:48;6.60;;;4.77;;
44358;SDS011;30077;52.474;13.326;2023-06-22T12:09:48;5.70;;;5.20;;
44358;SDS011;30077;52.474;13.326;2023-06-22T12:14:49;9.17;;;5.40;;
44358;SDS011;30077;52.474;13.326;2023-06-22T12:19:50;5.50;;;5.00;;
44358;SDS011;30077;52.474;13.326;2023-06-22T12:24:51;7.07;;;5.83;;
44358;SDS011;30077;52.474;13.326;2023-06-22T12:29:51;6.03;;;5.33;;
44358;SDS011;30077;52.474;13.326;2023-06-22T12:34:52;6.30;;;5.50;;
44358;SDS011;30077;52.474;13.326;2023-06-22T12:39:54;6.33;;;5.73;;
44358;SDS011;30077;52.474;13.326;2023-06-22T12:49:55;8.00;;;5.43;;
44358;SDS011;30077;52.474;13.326;2023-06-22T12:54:56;5.43;;;4.93;;
44358;SDS011;30077;52.474;13.326;2023-06-22T12:59:56;5.43;;;4.87;;
44358;SDS011;30077;52.474;13.326;2023-06-22T13:04:58;8.73;;;5.95;;
44358;SDS011;30077;52.474;13.326;2023-06-22T13:09:59;7.07;;;5.97;;
44358;SDS011;30077;52.474;13.326;2023-06-22T13:15:00;7.47;;;5.97;;
44358;SDS011;30077;52.474;13.326;2023-06-22T13:20:03;9.90;;;6.07;;
44358;SDS011;30077;52.474;13.326;2023-06-22T13:30:06;10.53;;;6.43;;
44358;SDS011;30077;52.474;13.326;2023-06-22T13:35:09;7.68;;;5.95;;
44358;SDS011;30077;52.474;13.326;2023-06-22T13:45:11;14.43;;;6.30;;
44358;SDS011;30077;52.474;13.326;2023-06-22T13:50:12;10.68;;;6.03;;
44358;SDS011;30077;52.474;13.326;2023-06-22T13:55:13;6.45;;;5.85;;
44358;SDS011;30077;52.474;13.326;2023-06-22T14:00:14;6.93;;;5.50;;
44358;SDS011;30077;52.474;13.326;2023-06-22T14:05:15;8.77;;;6.90;;
44358;SDS011;30077;52.474;13.326;2023-06-22T14:10:16;7.60;;;6.20;;
44358;SDS011;30077;52.474;13.326;2023-06-22T14:15:16;7.85;;;5.97;;
44358;SDS011;30077;52.474;13.326;2023-06-22T14:20:18;7.68;;;6.32;;
44358;SDS011;30077;52.474;13.326;2023-06-22T14:25:19;9.52;;;5.93;;
44358;SDS011;30077;52.474;13.326;2023-06-22T14:30:19;6.10;;;5.50;;
44358;SDS011;30077;52.474;13.326;2023-06-22T14:35:20;7.50;;;6.53;;
44358;SDS011;30077;52.474;13.326;2023-06-22T14:40:21;6.90;;;6.00;;
44358;SDS011;30077;52.474;13.326;2023-06-22T14:45:22;6.83;;;5.93;;
44358;SDS011;30077;52.474;13.326;2023-06-22T14:50:23;8.65;;;5.50;;
44358;SDS011;30077;52.474;13.326;2023-06-22T14:55:24;6.38;;;5.63;;
44358;SDS011;30077;52.474;13.326;2023-06-22T15:00:24;8.85;;;6.35;;
44358;SDS011;30077;52.474;13.326;2023-06-22T15:05:25;9.00;;;5.47;;
44358;SDS011;30077;52.474;13.326;2023-06-22T15:10:26;12.45;;;5.93;;
44358;SDS011;30077;52.474;13.326;2023-06-22T15:15:26;8.83;;;6.33;;
44358;SDS011;30077;52.474;13.326;2023-06-22T15:20:27;6.63;;;5.97;;
44358;SDS011;30077;52.474;13.326;2023-06-22T15:25:28;6.27;;;5.77;;
44358;SDS011;30077;52.474;13.326;2023-06-22T15:30:29;7.07;;;6.37;;
44358;SDS011;30077;52.474;13.326;2023-06-22T15:35:30;8.18;;;6.25;;
44358;SDS011;30077;52.474;13.326;2023-06-22T15:40:31;8.43;;;6.30;;
44358;SDS011;30077;52.474;13.326;2023-06-22T15:45:32;6.85;;;6.22;;
44358;SDS011;30077;52.474;13.326;2023-06-22T15:50:32;6.47;;;5.80;;
44358;SDS011;30077;52.474;13.326;2023-06-22T15:55:33;7.47;;;6.67;;
44358;SDS011;30077;52.474;13.326;2023-06-22T16:00:35;6.93;;;6.25;;
44358;SDS011;30077;52.474;13.326;2023-06-22T16:05:35;8.03;;;6.37;;
44358;SDS011;30077;52.474;13.326;2023-06-22T16:10:36;6.60;;;6.07;;
44358;SDS011;30077;52.474;13.326;2023-06-22T16:15:39;6.35;;;5.75;;
44358;SDS011;30077;52.474;13.326;2023-06-22T16:20:40;9.87;;;6.57;;
44358;SDS011;30077;52.474;13.326;2023-06-22T16:25:40;6.87;;;6.27;;
44358;SDS011;30077;52.474;13.326;2023-06-22T16:30:43;8.30;;;7.50;;
44358;SDS011;30077;52.474;13.326;2023-06-22T16:35:43;7.40;;;6.67;;
44358;SDS011;30077;52.474;13.326;2023-06-22T16:40:44;9.03;;;7.07;;
44358;SDS011;30077;52.474;13.326;2023-06-22T16:45:45;10.57;;;7.00;;
44358;SDS011;30077;52.474;13.326;2023-06-22T16:50:46;8.30;;;7.43;;
44358;SDS011;30077;52.474;13.326;2023-06-22T16:55:49;7.83;;;7.13;;
44358;SDS011;30077;52.474;13.326;2023-06-22T17:00:50;8.43;;;7.35;;
44358;SDS011;30077;52.474;13.326;2023-06-22T17:05:55;14.60;;;7.77;;
44358;SDS011;30077;52.474;13.326;2023-06-22T17:10:57;7.95;;;7.15;;
44358;SDS011;30077;52.474;13.326;2023-06-22T17:15:58;7.60;;;6.47;;
44358;SDS011;30077;52.474;13.326;2023-06-22T17:21:01;9.88;;;8.00;;
44358;SDS011;30077;52.474;13.326;2023-06-22T17:26:01;9.98;;;7.65;;
44358;SDS011;30077;52.474;13.326;2023-06-22T17:31:09;10.48;;;7.10;;
44358;SDS011;30077;52.474;13.326;2023-06-22T17:36:13;9.80;;;7.53;;
44358;SDS011;30077;52.474;13.326;2023-06-22T17:41:14;8.02;;;6.78;;
44358;SDS011;30077;52.474;13.326;2023-06-22T17:46:14;7.82;;;7.03;;
44358;SDS011;30077;52.474;13.326;2023-06-22T17:51:16;8.45;;;7.63;;
44358;SDS011;30077;52.474;13.326;2023-06-22T17:56:18;11.48;;;8.45;;
44358;SDS011;30077;52.474;13.326;2023-06-22T18:06:36;8.82;;;7.22;;
44358;SDS011;30077;52.474;13.326;2023-06-22T18:11:49;8.63;;;7.40;;
44358;SDS011;30077;52.474;13.326;2023-06-22T18:16:50;7.68;;;6.97;;
44358;SDS011;30077;52.474;13.326;2023-06-22T18:21:51;11.35;;;7.75;;
44358;SDS011;30077;52.474;13.326;2023-06-22T18:26:52;11.30;;;6.90;;
44358;SDS011;30077;52.474;13.326;2023-06-22T18:31:55;8.50;;;7.60;;
44358;SDS011;30077;52.474;13.326;2023-06-22T18:36:57;16.17;;;8.45;;
44358;SDS011;30077;52.474;13.326;2023-06-22T18:42:00;11.95;;;7.93;;
44358;SDS011;30077;52.474;13.326;2023-06-22T18:47:02;9.73;;;7.68;;
44358;SDS011;30077;52.474;13.326;2023-06-22T18:57:17;9.63;;;7.75;;
44358;SDS011;30077;52.474;13.326;2023-06-22T19:13:16;11.30;;;8.00;;
44358;SDS011;30077;52.474;13.326;2023-06-22T19:18:49;11.30;;;8.00;;
44358;SDS011;30077;52.474;13.326;2023-06-22T19:23:51;11.10;;;8.10;;
44358;SDS011;30077;52.474;13.326;2023-06-22T19:28:53;10.93;;;8.48;;
44358;SDS011;30077;52.474;13.326;2023-06-22T19:34:00;10.90;;;8.85;;
44358;SDS011;30077;52.474;13.326;2023-06-22T19:39:04;9.23;;;8.13;;
44358;SDS011;30077;52.474;13.326;2023-06-22T19:44:05;8.65;;;7.75;;
44358;SDS011;30077;52.474;13.326;2023-06-22T19:49:06;10.93;;;7.88;;
44358;SDS011;30077;52.474;13.326;2023-06-22T19:54:08;14.10;;;8.17;;
44358;SDS011;30077;52.474;13.326;2023-06-22T19:59:14;8.98;;;7.80;;
44358;SDS011;30077;52.474;13.326;2023-06-22T20:04:15;10.73;;;8.10;;
44358;SDS011;30077;52.474;13.326;2023-06-22T20:09:16;11.70;;;8.45;;
44358;SDS011;30077;52.474;13.326;2023-06-22T20:14:19;10.68;;;8.05;;
44358;SDS011;30077;52.474;13.326;2023-06-22T20:19:31;8.48;;;7.43;;
44358;SDS011;30077;52.474;13.326;2023-06-22T20:24:36;11.68;;;7.50;;
44358;SDS011;30077;52.474;13.326;2023-06-22T20:29:38;9.60;;;8.60;;
44358;SDS011;30077;52.474;13.326;2023-06-22T20:34:40;15.47;;;9.73;;
44358;SDS011;30077;52.474;13.326;2023-06-22T20:39:47;46.47;;;16.20;;
44358;SDS011;30077;52.474;13.326;2023-06-22T20:44:49;14.23;;;11.75;;
44358;SDS011;30077;52.474;13.326;2023-06-22T20:49:51;71.00;;;21.63;;
44358;SDS011;30077;52.474;13.326;2023-06-22T20:54:53;31.83;;;21.75;;
44358;SDS011;30077;52.474;13.326;2023-06-22T20:59:54;26.85;;;21.33;;
44358;SDS011;30077;52.474;13.326;2023-06-22T21:04:55;25.15;;;17.38;;
44358;SDS011;30077;52.474;13.326;2023-06-22T21:09:55;27.60;;;19.30;;
44358;SDS011;30077;52.474;13.326;2023-06-22T21:14:56;22.88;;;18.13;;
44358;SDS011;30077;52.474;13.326;2023-06-22T21:19:57;24.38;;;18.65;;
44358;SDS011;30077;52.474;13.326;2023-06-22T21:30:13;19.67;;;17.55;;
44358;SDS011;30077;52.474;13.326;2023-06-22T21:35:15;27.27;;;22.63;;
44358;SDS011;30077;52.474;13.326;2023-06-22T21:40:16;26.92;;;24.05;;
44358;SDS011;30077;52.474;13.326;2023-06-22T21:45:17;32.70;;;22.73;;
44358;SDS011;30077;52.474;13.326;2023-06-22T21:50:17;31.85;;;24.83;;
44358;SDS011;30077;52.474;13.326;2023-06-22T21:55:19;40.72;;;28.10;;
44358;SDS011;30077;52.474;13.326;2023-06-22T22:00:20;39.65;;;26.58;;
44358;SDS011;30077;52.474;13.326;2023-06-22T22:05:21;33.28;;;26.63;;
44358;SDS011;30077;52.474;13.326;2023-06-22T22:10:22;34.37;;;27.70;;
44358;SDS011;30077;52.474;13.326;2023-06-22T22:15:23;40.35;;;31.27;;
44358;SDS011;30077;52.474;13.326;2023-06-22T22:20:24;45.63;;;36.78;;
44358;SDS011;30077;52.474;13.326;2023-06-22T22:25:24;44.20;;;33.20;;
44358;SDS011;30077;52.474;13.326;2023-06-22T22:30:26;40.03;;;34.00;;
44358;SDS011;30077;52.474;13.326;2023-06-22T22:35:27;36.35;;;28.45;;
44358;SDS011;30077;52.474;13.326;2023-06-22T22:40:28;35.60;;;29.10;;
44358;SDS011;30077;52.474;13.326;2023-06-22T22:45:28;32.70;;;27.85;;
44358;SDS011;30077;52.474;13.326;2023-06-22T22:50:29;35.83;;;26.85;;
44358;SDS011;30077;52.474;13.326;2023-06-22T22:55:30;28.38;;;22.80;;
44358;SDS011;30077;52.474;13.326;2023-06-22T23:00:31;30.52;;;24.30;;
44358;SDS011;30077;52.474;13.326;2023-06-22T23:05:32;31.30;;;26.57;;
44358;SDS011;30077;52.474;13.326;2023-06-22T23:10:34;34.93;;;23.60;;
44358;SDS011;30077;52.474;13.326;2023-06-22T23:15:34;26.55;;;23.05;;
44358;SDS011;30077;52.474;13.326;2023-06-22T23:20:36;24.42;;;21.85;;
44358;SDS011;30077;52.474;13.326;2023-06-22T23:25:36;30.48;;;24.13;;
44358;SDS011;30077;52.474;13.326;2023-06-22T23:30:38;22.38;;;19.45;;
44358;SDS011;30077;52.474;13.326;2023-06-22T23:35:38;22.83;;;19.13;;
44358;SDS011;30077;52.474;13.326;2023-06-22T23:40:40;20.90;;;18.35;;
44358;SDS011;30077;52.474;13.326;2023-06-22T23:45:41;22.75;;;18.45;;
44358;SDS011;30077;52.474;13.326;2023-06-22T23:50:41;22.90;;;19.13;;
44358;SDS011;30077;52.474;13.326;2023-06-22T23:55:42;19.83;;;17.33;;
